TimeEST,TemperatureF,Dew PointF,Humidity,Sea Level PressureIn,VisibilityMPH,Wind Direction,Wind SpeedMPH,Gust SpeedMPH,PrecipitationIn,Events,Conditions,WindDirDegrees,DateUTC
12:53 AM,64.9,61.0,87,30.14,10.0,Calm,Calm,-,N/A,,Clear,0,2013-01-15 05:53:00
1:53 AM,63.0,60.1,90,30.14,10.0,Calm,Calm,-,N/A,,Clear,0,2013-01-15 06:53:00
2:53 AM,63.0,61.0,93,30.12,10.0,Calm,Calm,-,N/A,,Clear,0,2013-01-15 07:53:00
3:53 AM,62.1,59.0,90,30.11,10.0,Calm,Calm,-,N/A,,Clear,0,2013-01-15 08:53:00
4:53 AM,61.0,59.0,93,30.12,10.0,Calm,Calm,-,N/A,,Clear,0,2013-01-15 09:53:00
5:53 AM,61.0,60.1,97,30.12,10.0,Calm,Calm,-,N/A,,Clear,0,2013-01-15 10:53:00
7:53 AM,62.1,61.0,96,30.14,6.0,Calm,Calm,-,N/A,,Clear,0,2013-01-15 12:53:00
8:53 AM,69.1,64.9,87,30.14,10.0,East,4.6,-,N/A,,Clear,100,2013-01-15 13:53:00
9:53 AM,73.9,64.9,73,30.14,10.0,East,6.9,-,N/A,,Clear,100,2013-01-15 14:53:00
10:53 AM,77.0,64.9,66,30.13,10.0,SSE,8.1,-,N/A,,Clear,160,2013-01-15 15:53:00
11:53 AM,80.1,62.1,54,30.10,10.0,ESE,6.9,-,N/A,,Partly Cloudy,110,2013-01-15 16:53:00
12:53 PM,81.0,61.0,50,30.09,10.0,East,6.9,-,N/A,,Mostly Cloudy,100,2013-01-15 17:53:00
1:53 PM,82.0,60.1,47,30.06,10.0,SSE,8.1,-,N/A,,Overcast,160,2013-01-15 18:53:00
2:53 PM,80.1,62.1,54,30.06,10.0,West,10.4,-,N/A,,Mostly Cloudy,280,2013-01-15 19:53:00
3:53 PM,80.1,60.1,50,30.06,10.0,SW,6.9,-,N/A,,Partly Cloudy,230,2013-01-15 20:53:00
4:53 PM,79.0,59.0,50,30.07,10.0,SSW,4.6,-,N/A,,Mostly Cloudy,210,2013-01-15 21:53:00
5:53 PM,75.9,59.0,56,30.07,10.0,SSW,3.5,-,N/A,,Scattered Clouds,200,2013-01-15 22:53:00
6:53 PM,75.0,60.1,60,30.08,10.0,Calm,Calm,-,N/A,,Overcast,0,2013-01-15 23:53:00
7:53 PM,73.9,61.0,64,30.08,10.0,ESE,3.5,-,N/A,,Mostly Cloudy,110,2013-01-16 00:53:00
8:53 PM,73.0,61.0,66,30.06,10.0,Calm,Calm,-,N/A,,Mostly Cloudy,0,2013-01-16 01:53:00
9:53 PM,72.0,64.9,78,30.06,10.0,SSE,4.6,-,N/A,,Scattered Clouds,150,2013-01-16 02:53:00
10:53 PM,71.1,64.9,81,30.06,10.0,SE,3.5,-,N/A,,Overcast,130,2013-01-16 03:53:00
11:53 PM,69.1,64.9,87,30.07,10.0,Calm,Calm,-,N/A,,Clear,0,2013-01-16 04:53:00